sensor_id;sensor_type;location;lat;lon;timestamp;P1;durP1;ratioP1;P2;durP2;ratioP2
13291;SDS011;6714;53.056;8.690;2023-04-03T00:00:12;2.67;;;1.53;;
13291;SDS011;6714;53.056;8.690;2023-04-03T00:02:54;2.93;;;1.27;;
13291;SDS011;6714;53.056;8.690;2023-04-03T00:05:36;1.70;;;1.40;;
13291;SDS011;6714;53.056;8.690;2023-04-03T00:08:19;2.67;;;1.40;;
13291;SDS011;6714;53.056;8.690;2023-04-03T00:11:03;1.73;;;1.37;;
13291;SDS011;6714;53.056;8.690;2023-04-03T00:13:45;3.83;;;1.50;;
13291;SDS011;6714;53.056;8.690;2023-04-03T00:16:28;1.93;;;1.23;;
13291;SDS011;6714;53.056;8.690;2023-04-03T00:19:10;1.83;;;1.23;;
13291;SDS011;6714;53.056;8.690;2023-04-03T00:21:53;2.53;;;1.40;;
13291;SDS011;6714;53.056;8.690;2023-04-03T00:24:35;2.50;;;1.30;;
13291;SDS011;6714;53.056;8.690;2023-04-03T00:27:19;3.20;;;1.50;;
13291;SDS011;6714;53.056;8.690;2023-04-03T00:30:02;3.67;;;1.47;;
13291;SDS011;6714;53.056;8.690;2023-04-03T00:32:44;3.53;;;1.50;;
13291;SDS011;6714;53.056;8.690;2023-04-03T00:35:27;2.63;;;1.50;;
13291;SDS011;6714;53.056;8.690;2023-04-03T00:38:09;2.33;;;1.40;;
13291;SDS011;6714;53.056;8.690;2023-04-03T00:40:52;3.40;;;1.50;;
13291;SDS011;6714;53.056;8.690;2023-04-03T00:43:35;2.60;;;1.47;;
13291;SDS011;6714;53.056;8.690;2023-04-03T00:46:18;2.57;;;1.43;;
13291;SDS011;6714;53.056;8.690;2023-04-03T00:49:00;2.23;;;1.37;;
13291;SDS011;6714;53.056;8.690;2023-04-03T00:51:42;2.50;;;1.30;;
13291;SDS011;6714;53.056;8.690;2023-04-03T00:54:25;2.27;;;1.27;;
13291;SDS011;6714;53.056;8.690;2023-04-03T00:57:08;1.50;;;1.40;;
13291;SDS011;6714;53.056;8.690;2023-04-03T00:59:53;3.10;;;1.30;;
13291;SDS011;6714;53.056;8.690;2023-04-03T01:02:37;2.00;;;1.40;;
13291;SDS011;6714;53.056;8.690;2023-04-03T01:05:20;2.40;;;1.33;;
13291;SDS011;6714;53.056;8.690;2023-04-03T01:08:03;2.30;;;1.70;;
13291;SDS011;6714;53.056;8.690;2023-04-03T01:10:46;1.30;;;1.20;;
13291;SDS011;6714;53.056;8.690;2023-04-03T01:13:29;1.30;;;1.20;;
13291;SDS011;6714;53.056;8.690;2023-04-03T01:16:13;2.17;;;1.20;;
13291;SDS011;6714;53.056;8.690;2023-04-03T01:18:55;2.30;;;1.50;;
13291;SDS011;6714;53.056;8.690;2023-04-03T01:21:51;5.23;;;1.60;;
13291;SDS011;6714;53.056;8.690;2023-04-03T01:24:36;2.43;;;1.53;;
13291;SDS011;6714;53.056;8.690;2023-04-03T01:27:19;2.23;;;1.50;;
13291;SDS011;6714;53.056;8.690;2023-04-03T01:30:02;3.27;;;1.40;;
13291;SDS011;6714;53.056;8.690;2023-04-03T01:32:45;1.30;;;1.20;;
13291;SDS011;6714;53.056;8.690;2023-04-03T01:35:28;2.17;;;1.77;;
13291;SDS011;6714;53.056;8.690;2023-04-03T01:38:10;2.60;;;1.60;;
13291;SDS011;6714;53.056;8.690;2023-04-03T01:43:35;2.30;;;1.50;;
13291;SDS011;6714;53.056;8.690;2023-04-03T01:46:18;2.07;;;1.60;;
13291;SDS011;6714;53.056;8.690;2023-04-03T01:49:02;5.53;;;1.80;;
13291;SDS011;6714;53.056;8.690;2023-04-03T01:51:44;2.33;;;1.80;;
13291;SDS011;6714;53.056;8.690;2023-04-03T01:54:26;4.03;;;1.90;;
13291;SDS011;6714;53.056;8.690;2023-04-03T01:57:08;2.87;;;1.70;;
13291;SDS011;6714;53.056;8.690;2023-04-03T01:59:51;2.17;;;1.73;;
13291;SDS011;6714;53.056;8.690;2023-04-03T02:02:33;1.67;;;1.50;;
13291;SDS011;6714;53.056;8.690;2023-04-03T02:05:16;2.57;;;1.70;;
13291;SDS011;6714;53.056;8.690;2023-04-03T02:07:58;2.53;;;1.50;;
13291;SDS011;6714;53.056;8.690;2023-04-03T02:10:41;4.33;;;2.00;;
13291;SDS011;6714;53.056;8.690;2023-04-03T02:13:23;2.33;;;1.80;;
13291;SDS011;6714;53.056;8.690;2023-04-03T02:16:08;3.73;;;1.70;;
13291;SDS011;6714;53.056;8.690;2023-04-03T02:18:51;2.90;;;1.50;;
13291;SDS011;6714;53.056;8.690;2023-04-03T02:21:34;4.20;;;1.53;;
13291;SDS011;6714;53.056;8.690;2023-04-03T02:24:16;4.23;;;1.70;;
13291;SDS011;6714;53.056;8.690;2023-04-03T02:26:58;3.43;;;1.97;;
13291;SDS011;6714;53.056;8.690;2023-04-03T02:29:41;2.73;;;1.80;;
13291;SDS011;6714;53.056;8.690;2023-04-03T02:32:23;3.73;;;1.57;;
13291;SDS011;6714;53.056;8.690;2023-04-03T02:35:05;2.27;;;1.67;;
13291;SDS011;6714;53.056;8.690;2023-04-03T02:37:49;3.27;;;1.87;;
13291;SDS011;6714;53.056;8.690;2023-04-03T02:40:31;2.13;;;1.60;;
13291;SDS011;6714;53.056;8.690;2023-04-03T02:43:13;2.70;;;1.90;;
13291;SDS011;6714;53.056;8.690;2023-04-03T02:45:55;3.33;;;1.67;;
13291;SDS011;6714;53.056;8.690;2023-04-03T02:48:37;2.13;;;1.57;;
13291;SDS011;6714;53.056;8.690;2023-04-03T02:51:20;2.87;;;1.73;;
13291;SDS011;6714;53.056;8.690;2023-04-03T02:54:04;4.30;;;2.10;;
13291;SDS011;6714;53.056;8.690;2023-04-03T02:56:46;3.20;;;2.00;;
13291;SDS011;6714;53.056;8.690;2023-04-03T02:59:28;3.27;;;1.70;;
13291;SDS011;6714;53.056;8.690;2023-04-03T03:02:11;2.43;;;1.57;;
13291;SDS011;6714;53.056;8.690;2023-04-03T03:04:53;2.90;;;2.10;;
13291;SDS011;6714;53.056;8.690;2023-04-03T03:07:35;3.37;;;1.70;;
13291;SDS011;6714;53.056;8.690;2023-04-03T03:10:19;3.67;;;1.60;;
13291;SDS011;6714;53.056;8.690;2023-04-03T03:13:01;3.50;;;1.93;;
13291;SDS011;6714;53.056;8.690;2023-04-03T03:15:44;2.53;;;1.80;;
13291;SDS011;6714;53.056;8.690;2023-04-03T03:18:26;3.97;;;2.60;;
13291;SDS011;6714;53.056;8.690;2023-04-03T03:21:09;2.77;;;1.80;;
13291;SDS011;6714;53.056;8.690;2023-04-03T03:23:51;3.27;;;1.50;;
13291;SDS011;6714;53.056;8.690;2023-04-03T03:26:35;3.87;;;1.90;;
13291;SDS011;6714;53.056;8.690;2023-04-03T03:29:17;2.30;;;1.50;;
13291;SDS011;6714;53.056;8.690;2023-04-03T03:31:59;5.17;;;2.00;;
13291;SDS011;6714;53.056;8.690;2023-04-03T03:34:42;5.63;;;1.73;;
13291;SDS011;6714;53.056;8.690;2023-04-03T03:37:24;4.33;;;1.93;;
13291;SDS011;6714;53.056;8.690;2023-04-03T03:40:07;3.07;;;1.70;;
13291;SDS011;6714;53.056;8.690;2023-04-03T03:42:52;2.10;;;1.87;;
13291;SDS011;6714;53.056;8.690;2023-04-03T03:45:34;3.13;;;1.60;;
13291;SDS011;6714;53.056;8.690;2023-04-03T03:48:17;2.23;;;1.70;;
13291;SDS011;6714;53.056;8.690;2023-04-03T03:50:59;4.50;;;2.20;;
13291;SDS011;6714;53.056;8.690;2023-04-03T03:53:41;3.13;;;1.83;;
13291;SDS011;6714;53.056;8.690;2023-04-03T03:56:24;3.57;;;1.60;;
13291;SDS011;6714;53.056;8.690;2023-04-03T03:59:07;4.03;;;1.80;;
13291;SDS011;6714;53.056;8.690;2023-04-03T04:01:50;2.80;;;1.77;;
13291;SDS011;6714;53.056;8.690;2023-04-03T04:04:32;2.33;;;1.83;;
13291;SDS011;6714;53.056;8.690;2023-04-03T04:07:14;2.50;;;1.53;;
13291;SDS011;6714;53.056;8.690;2023-04-03T04:09:57;2.53;;;1.80;;
13291;SDS011;6714;53.056;8.690;2023-04-03T04:12:39;1.83;;;1.73;;
13291;SDS011;6714;53.056;8.690;2023-04-03T04:15:23;4.07;;;2.20;;
13291;SDS011;6714;53.056;8.690;2023-04-03T04:18:05;3.20;;;1.60;;
13291;SDS011;6714;53.056;8.690;2023-04-03T04:20:48;3.93;;;2.00;;
13291;SDS011;6714;53.056;8.690;2023-04-03T04:23:30;3.10;;;2.10;;
13291;SDS011;6714;53.056;8.690;2023-04-03T04:26:13;5.87;;;2.13;;
13291;SDS011;6714;53.056;8.690;2023-04-03T04:28:55;1.97;;;1.67;;
13291;SDS011;6714;53.056;8.690;2023-04-03T04:31:38;2.57;;;1.50;;
13291;SDS011;6714;53.056;8.690;2023-04-03T04:34:20;2.97;;;1.70;;
13291;SDS011;6714;53.056;8.690;2023-04-03T04:37:03;2.80;;;1.90;;
13291;SDS011;6714;53.056;8.690;2023-04-03T04:39:45;3.03;;;1.83;;
13291;SDS011;6714;53.056;8.690;2023-04-03T04:42:27;2.83;;;2.00;;
13291;SDS011;6714;53.056;8.690;2023-04-03T04:45:10;3.50;;;1.97;;
13291;SDS011;6714;53.056;8.690;2023-04-03T04:47:55;4.73;;;2.13;;
13291;SDS011;6714;53.056;8.690;2023-04-03T04:50:38;3.10;;;1.97;;
13291;SDS011;6714;53.056;8.690;2023-04-03T04:53:20;3.13;;;1.80;;
13291;SDS011;6714;53.056;8.690;2023-04-03T04:56:03;4.00;;;1.90;;
13291;SDS011;6714;53.056;8.690;2023-04-03T04:58:45;4.30;;;2.17;;
13291;SDS011;6714;53.056;8.690;2023-04-03T05:01:27;5.97;;;2.43;;
13291;SDS011;6714;53.056;8.690;2023-04-03T05:04:11;4.97;;;2.23;;
13291;SDS011;6714;53.056;8.690;2023-04-03T05:06:53;4.03;;;2.30;;
13291;SDS011;6714;53.056;8.690;2023-04-03T05:09:36;6.63;;;2.67;;
13291;SDS011;6714;53.056;8.690;2023-04-03T05:12:18;5.93;;;2.37;;
13291;SDS011;6714;53.056;8.690;2023-04-03T05:15:01;4.37;;;2.43;;
13291;SDS011;6714;53.056;8.690;2023-04-03T05:17:43;7.40;;;3.03;;
13291;SDS011;6714;53.056;8.690;2023-04-03T05:20:27;3.97;;;2.43;;
13291;SDS011;6714;53.056;8.690;2023-04-03T05:23:09;7.27;;;3.47;;
13291;SDS011;6714;53.056;8.690;2023-04-03T05:25:51;6.83;;;2.83;;
13291;SDS011;6714;53.056;8.690;2023-04-03T05:28:34;6.33;;;2.97;;
13291;SDS011;6714;53.056;8.690;2023-04-03T05:31:16;3.27;;;2.37;;
13291;SDS011;6714;53.056;8.690;2023-04-03T05:33:59;4.90;;;2.60;;
13291;SDS011;6714;53.056;8.690;2023-04-03T05:36:42;2.37;;;2.00;;
13291;SDS011;6714;53.056;8.690;2023-04-03T05:39:24;2.53;;;2.20;;
13291;SDS011;6714;53.056;8.690;2023-04-03T05:42:07;2.47;;;1.93;;
13291;SDS011;6714;53.056;8.690;2023-04-03T05:44:49;9.07;;;2.50;;
13291;SDS011;6714;53.056;8.690;2023-04-03T05:47:31;6.03;;;2.70;;
13291;SDS011;6714;53.056;8.690;2023-04-03T05:50:13;6.90;;;2.40;;
13291;SDS011;6714;53.056;8.690;2023-04-03T05:52:57;3.27;;;2.30;;
13291;SDS011;6714;53.056;8.690;2023-04-03T05:55:39;4.60;;;2.43;;
13291;SDS011;6714;53.056;8.690;2023-04-03T05:58:21;5.73;;;2.20;;
13291;SDS011;6714;53.056;8.690;2023-04-03T06:01:04;5.07;;;2.43;;
13291;SDS011;6714;53.056;8.690;2023-04-03T06:03:46;7.27;;;2.87;;
13291;SDS011;6714;53.056;8.690;2023-04-03T06:06:42;7.53;;;2.20;;
13291;SDS011;6714;53.056;8.690;2023-04-03T06:09:26;6.50;;;2.67;;
13291;SDS011;6714;53.056;8.690;2023-04-03T06:12:09;5.30;;;2.10;;
13291;SDS011;6714;53.056;8.690;2023-04-03T06:14:51;3.93;;;2.20;;
13291;SDS011;6714;53.056;8.690;2023-04-03T06:17:34;4.50;;;2.70;;
13291;SDS011;6714;53.056;8.690;2023-04-03T06:20:16;4.50;;;2.80;;
13291;SDS011;6714;53.056;8.690;2023-04-03T06:22:58;8.07;;;2.77;;
13291;SDS011;6714;53.056;8.690;2023-04-03T06:25:42;6.90;;;3.10;;
13291;SDS011;6714;53.056;8.690;2023-04-03T06:28:24;8.57;;;3.10;;
13291;SDS011;6714;53.056;8.690;2023-04-03T06:31:07;6.57;;;3.07;;
13291;SDS011;6714;53.056;8.690;2023-04-03T06:33:49;7.23;;;3.40;;
13291;SDS011;6714;53.056;8.690;2023-04-03T06:36:31;6.33;;;2.77;;
13291;SDS011;6714;53.056;8.690;2023-04-03T06:39:14;9.37;;;3.80;;
13291;SDS011;6714;53.056;8.690;2023-04-03T06:41:58;6.70;;;3.10;;
13291;SDS011;6714;53.056;8.690;2023-04-03T06:44:40;9.20;;;3.13;;
13291;SDS011;6714;53.056;8.690;2023-04-03T06:47:23;8.00;;;2.90;;
13291;SDS011;6714;53.056;8.690;2023-04-03T06:50:05;10.00;;;3.40;;
13291;SDS011;6714;53.056;8.690;2023-04-03T06:52:49;9.73;;;3.30;;
13291;SDS011;6714;53.056;8.690;2023-04-03T06:55:31;4.43;;;2.73;;
13291;SDS011;6714;53.056;8.690;2023-04-03T06:58:14;9.17;;;3.47;;
13291;SDS011;6714;53.056;8.690;2023-04-03T07:00:57;6.97;;;3.03;;
13291;SDS011;6714;53.056;8.690;2023-04-03T07:03:40;4.70;;;2.33;;
13291;SDS011;6714;53.056;8.690;2023-04-03T07:06:22;7.10;;;3.03;;
13291;SDS011;6714;53.056;8.690;2023-04-03T07:09:07;5.50;;;2.67;;
13291;SDS011;6714;53.056;8.690;2023-04-03T07:11:49;6.33;;;2.70;;
13291;SDS011;6714;53.056;8.690;2023-04-03T07:14:32;4.70;;;2.33;;
13291;SDS011;6714;53.056;8.690;2023-04-03T07:17:15;5.63;;;2.77;;
13291;SDS011;6714;53.056;8.690;2023-04-03T07:19:57;7.07;;;2.50;;
13291;SDS011;6714;53.056;8.690;2023-04-03T07:22:39;4.67;;;2.43;;
13291;SDS011;6714;53.056;8.690;2023-04-03T07:25:21;3.87;;;2.07;;
13291;SDS011;6714;53.056;8.690;2023-04-03T07:28:03;4.73;;;2.50;;
13291;SDS011;6714;53.056;8.690;2023-04-03T07:30:47;6.20;;;2.40;;
13291;SDS011;6714;53.056;8.690;2023-04-03T07:33:30;5.80;;;2.20;;
13291;SDS011;6714;53.056;8.690;2023-04-03T07:36:14;5.23;;;2.00;;
13291;SDS011;6714;53.056;8.690;2023-04-03T07:38:56;5.27;;;2.23;;
13291;SDS011;6714;53.056;8.690;2023-04-03T07:41:38;5.20;;;2.03;;
13291;SDS011;6714;53.056;8.690;2023-04-03T07:44:21;3.97;;;2.10;;
13291;SDS011;6714;53.056;8.690;2023-04-03T07:47:04;5.07;;;1.93;;
13291;SDS011;6714;53.056;8.690;2023-04-03T07:49:46;2.97;;;1.50;;
13291;SDS011;6714;53.056;8.690;2023-04-03T07:52:28;4.57;;;1.47;;
13291;SDS011;6714;53.056;8.690;2023-04-03T07:55:11;2.50;;;1.50;;
13291;SDS011;6714;53.056;8.690;2023-04-03T07:57:53;1.40;;;1.10;;
13291;SDS011;6714;53.056;8.690;2023-04-03T08:00:35;4.40;;;1.63;;
13291;SDS011;6714;53.056;8.690;2023-04-03T08:03:19;1.73;;;1.30;;
13291;SDS011;6714;53.056;8.690;2023-04-03T08:06:01;2.90;;;1.60;;
13291;SDS011;6714;53.056;8.690;2023-04-03T08:08:44;2.97;;;1.10;;
13291;SDS011;6714;53.056;8.690;2023-04-03T08:11:27;1.60;;;1.20;;
13291;SDS011;6714;53.056;8.690;2023-04-03T08:14:09;2.47;;;1.13;;
13291;SDS011;6714;53.056;8.690;2023-04-03T08:16:56;2.50;;;1.10;;
13291;SDS011;6714;53.056;8.690;2023-04-03T08:19:39;2.23;;;1.23;;
13291;SDS011;6714;53.056;8.690;2023-04-03T08:22:22;2.10;;;1.10;;
13291;SDS011;6714;53.056;8.690;2023-04-03T08:25:05;2.73;;;1.37;;
13291;SDS011;6714;53.056;8.690;2023-04-03T08:27:47;1.37;;;1.00;;
13291;SDS011;6714;53.056;8.690;2023-04-03T08:30:29;2.60;;;1.27;;
13291;SDS011;6714;53.056;8.690;2023-04-03T08:33:11;3.17;;;1.20;;
13291;SDS011;6714;53.056;8.690;2023-04-03T08:35:55;2.00;;;0.97;;
13291;SDS011;6714;53.056;8.690;2023-04-03T08:38:37;2.77;;;1.13;;
13291;SDS011;6714;53.056;8.690;2023-04-03T08:41:20;2.33;;;1.20;;
13291;SDS011;6714;53.056;8.690;2023-04-03T08:44:14;1.93;;;1.00;;
13291;SDS011;6714;53.056;8.690;2023-04-03T08:47:02;1.10;;;1.00;;
13291;SDS011;6714;53.056;8.690;2023-04-03T08:49:45;1.73;;;1.10;;
13291;SDS011;6714;53.056;8.690;2023-04-03T08:52:34;3.07;;;1.13;;
13291;SDS011;6714;53.056;8.690;2023-04-03T08:55:21;1.53;;;1.00;;
13291;SDS011;6714;53.056;8.690;2023-04-03T08:58:05;1.77;;;1.00;;
13291;SDS011;6714;53.056;8.690;2023-04-03T09:00:48;4.00;;;1.20;;
13291;SDS011;6714;53.056;8.690;2023-04-03T09:03:32;2.80;;;1.33;;
13291;SDS011;6714;53.056;8.690;2023-04-03T09:06:17;2.33;;;1.30;;
13291;SDS011;6714;53.056;8.690;2023-04-03T09:09:06;3.87;;;1.20;;
13291;SDS011;6714;53.056;8.690;2023-04-03T09:11:53;2.30;;;1.27;;
13291;SDS011;6714;53.056;8.690;2023-04-03T09:14:39;1.93;;;1.20;;
13291;SDS011;6714;53.056;8.690;2023-04-03T09:17:27;1.77;;;1.10;;
13291;SDS011;6714;53.056;8.690;2023-04-03T09:20:16;1.77;;;1.10;;
13291;SDS011;6714;53.056;8.690;2023-04-03T09:23:00;2.33;;;1.10;;
13291;SDS011;6714;53.056;8.690;2023-04-03T09:25:43;1.70;;;1.07;;
13291;SDS011;6714;53.056;8.690;2023-04-03T09:28:25;1.80;;;1.10;;
13291;SDS011;6714;53.056;8.690;2023-04-03T09:31:13;2.47;;;1.57;;
13291;SDS011;6714;53.056;8.690;2023-04-03T09:33:59;4.33;;;1.10;;
13291;SDS011;6714;53.056;8.690;2023-04-03T09:36:44;1.27;;;0.90;;
13291;SDS011;6714;53.056;8.690;2023-04-03T09:39:27;1.77;;;0.93;;
13291;SDS011;6714;53.056;8.690;2023-04-03T09:42:14;1.50;;;1.20;;
13291;SDS011;6714;53.056;8.690;2023-04-03T09:44:59;1.00;;;0.80;;
13291;SDS011;6714;53.056;8.690;2023-04-03T09:47:41;1.47;;;0.73;;
13291;SDS011;6714;53.056;8.690;2023-04-03T09:50:24;1.10;;;1.00;;
13291;SDS011;6714;53.056;8.690;2023-04-03T09:53:07;1.93;;;0.97;;
13291;SDS011;6714;53.056;8.690;2023-04-03T09:55:49;1.80;;;1.10;;
13291;SDS011;6714;53.056;8.690;2023-04-03T09:58:33;0.90;;;0.90;;
13291;SDS011;6714;53.056;8.690;2023-04-03T10:01:22;0.93;;;0.80;;
13291;SDS011;6714;53.056;8.690;2023-04-03T10:04:06;0.87;;;0.83;;
13291;SDS011;6714;53.056;8.690;2023-04-03T10:06:49;1.10;;;0.90;;
13291;SDS011;6714;53.056;8.690;2023-04-03T10:09:32;2.13;;;0.90;;
13291;SDS011;6714;53.056;8.690;2023-04-03T10:12:14;0.80;;;0.80;;
13291;SDS011;6714;53.056;8.690;2023-04-03T10:15:10;1.60;;;0.70;;
13291;SDS011;6714;53.056;8.690;2023-04-03T10:17:54;1.37;;;0.80;;
13291;SDS011;6714;53.056;8.690;2023-04-03T10:20:40;1.60;;;0.90;;
13291;SDS011;6714;53.056;8.690;2023-04-03T10:23:26;1.40;;;0.93;;
13291;SDS011;6714;53.056;8.690;2023-04-03T10:26:12;1.63;;;0.80;;
13291;SDS011;6714;53.056;8.690;2023-04-03T10:29:01;1.03;;;0.80;;
13291;SDS011;6714;53.056;8.690;2023-04-03T10:31:47;1.10;;;1.00;;
13291;SDS011;6714;53.056;8.690;2023-04-03T10:34:31;0.73;;;0.73;;
13291;SDS011;6714;53.056;8.690;2023-04-03T10:37:18;1.07;;;0.97;;
13291;SDS011;6714;53.056;8.690;2023-04-03T10:40:05;0.90;;;0.70;;
13291;SDS011;6714;53.056;8.690;2023-04-03T10:42:53;1.53;;;0.80;;
13291;SDS011;6714;53.056;8.690;2023-04-03T10:45:44;0.70;;;0.70;;
13291;SDS011;6714;53.056;8.690;2023-04-03T10:48:40;3.40;;;1.10;;
13291;SDS011;6714;53.056;8.690;2023-04-03T10:51:25;1.10;;;0.83;;
13291;SDS011;6714;53.056;8.690;2023-04-03T10:54:11;0.70;;;0.70;;
13291;SDS011;6714;53.056;8.690;2023-04-03T10:56:54;1.03;;;0.80;;
13291;SDS011;6714;53.056;8.690;2023-04-03T10:59:39;1.40;;;0.93;;
13291;SDS011;6714;53.056;8.690;2023-04-03T11:02:23;1.37;;;0.73;;
13291;SDS011;6714;53.056;8.690;2023-04-03T11:05:13;0.97;;;0.80;;
13291;SDS011;6714;53.056;8.690;2023-04-03T11:07:57;0.93;;;0.83;;
13291;SDS011;6714;53.056;8.690;2023-04-03T11:10:44;1.33;;;0.80;;
13291;SDS011;6714;53.056;8.690;2023-04-03T11:13:28;0.70;;;0.70;;
13291;SDS011;6714;53.056;8.690;2023-04-03T11:16:12;2.10;;;1.10;;
13291;SDS011;6714;53.056;8.690;2023-04-03T11:18:58;0.90;;;0.90;;
13291;SDS011;6714;53.056;8.690;2023-04-03T11:21:44;0.87;;;0.70;;
13291;SDS011;6714;53.056;8.690;2023-04-03T11:24:29;0.90;;;0.90;;
13291;SDS011;6714;53.056;8.690;2023-04-03T11:27:15;1.47;;;1.10;;
13291;SDS011;6714;53.056;8.690;2023-04-03T11:29:58;1.90;;;1.03;;
13291;SDS011;6714;53.056;8.690;2023-04-03T11:32:46;2.17;;;1.00;;
13291;SDS011;6714;53.056;8.690;2023-04-03T11:35:30;1.23;;;0.90;;
13291;SDS011;6714;53.056;8.690;2023-04-03T11:38:17;0.70;;;0.70;;
13291;SDS011;6714;53.056;8.690;2023-04-03T11:41:00;0.93;;;0.87;;
13291;SDS011;6714;53.056;8.690;2023-04-03T11:43:55;1.63;;;0.90;;
13291;SDS011;6714;53.056;8.690;2023-04-03T11:46:50;1.37;;;1.00;;
13291;SDS011;6714;53.056;8.690;2023-04-03T11:55:46;0.60;;;0.60;;
13291;SDS011;6714;53.056;8.690;2023-04-03T11:58:34;1.13;;;1.03;;
13291;SDS011;6714;53.056;8.690;2023-04-03T12:04:14;0.77;;;0.70;;
13291;SDS011;6714;53.056;8.690;2023-04-03T12:09:58;1.97;;;0.80;;
13291;SDS011;6714;53.056;8.690;2023-04-03T12:12:42;1.50;;;1.07;;
13291;SDS011;6714;53.056;8.690;2023-04-03T12:18:36;0.60;;;0.60;;
13291;SDS011;6714;53.056;8.690;2023-04-03T12:21:22;1.47;;;1.07;;
13291;SDS011;6714;53.056;8.690;2023-04-03T12:24:12;0.87;;;0.87;;
13291;SDS011;6714;53.056;8.690;2023-04-03T12:27:08;1.13;;;0.80;;
13291;SDS011;6714;53.056;8.690;2023-04-03T12:33:03;1.00;;;1.00;;
13291;SDS011;6714;53.056;8.690;2023-04-03T12:35:49;1.10;;;0.80;;
13291;SDS011;6714;53.056;8.690;2023-04-03T12:38:53;2.63;;;0.90;;
13291;SDS011;6714;53.056;8.690;2023-04-03T12:41:42;1.40;;;0.90;;
13291;SDS011;6714;53.056;8.690;2023-04-03T12:44:32;0.90;;;0.83;;
13291;SDS011;6714;53.056;8.690;2023-04-03T12:47:26;0.87;;;0.87;;
13291;SDS011;6714;53.056;8.690;2023-04-03T12:50:17;1.83;;;1.10;;
13291;SDS011;6714;53.056;8.690;2023-04-03T12:53:01;1.17;;;1.03;;
13291;SDS011;6714;53.056;8.690;2023-04-03T12:55:44;0.80;;;0.80;;
13291;SDS011;6714;53.056;8.690;2023-04-03T12:58:27;1.37;;;1.27;;
13291;SDS011;6714;53.056;8.690;2023-04-03T13:01:11;1.13;;;1.00;;
13291;SDS011;6714;53.056;8.690;2023-04-03T13:03:55;0.97;;;0.97;;
13291;SDS011;6714;53.056;8.690;2023-04-03T13:06:39;1.80;;;1.03;;
13291;SDS011;6714;53.056;8.690;2023-04-03T13:09:23;1.17;;;0.90;;
13291;SDS011;6714;53.056;8.690;2023-04-03T13:12:10;0.97;;;0.80;;
13291;SDS011;6714;53.056;8.690;2023-04-03T13:14:53;1.33;;;1.00;;
13291;SDS011;6714;53.056;8.690;2023-04-03T13:17:38;0.97;;;0.97;;
13291;SDS011;6714;53.056;8.690;2023-04-03T13:20:22;0.83;;;0.80;;
13291;SDS011;6714;53.056;8.690;2023-04-03T13:23:07;0.87;;;0.83;;
13291;SDS011;6714;53.056;8.690;2023-04-03T13:25:49;1.97;;;1.20;;
13291;SDS011;6714;53.056;8.690;2023-04-03T13:28:32;2.33;;;1.47;;
13291;SDS011;6714;53.056;8.690;2023-04-03T13:31:19;0.90;;;0.90;;
13291;SDS011;6714;53.056;8.690;2023-04-03T13:34:05;0.97;;;0.97;;
13291;SDS011;6714;53.056;8.690;2023-04-03T13:36:54;0.83;;;0.73;;
13291;SDS011;6714;53.056;8.690;2023-04-03T13:39:38;2.33;;;1.33;;
13291;SDS011;6714;53.056;8.690;2023-04-03T13:42:21;0.97;;;0.90;;
13291;SDS011;6714;53.056;8.690;2023-04-03T13:45:09;0.90;;;0.90;;
13291;SDS011;6714;53.056;8.690;2023-04-03T13:47:53;1.10;;;1.00;;
13291;SDS011;6714;53.056;8.690;2023-04-03T13:50:49;1.33;;;1.00;;
13291;SDS011;6714;53.056;8.690;2023-04-03T13:53:32;0.90;;;0.90;;
13291;SDS011;6714;53.056;8.690;2023-04-03T13:56:21;1.13;;;1.03;;
13291;SDS011;6714;53.056;8.690;2023-04-03T13:59:05;1.07;;;0.87;;
13291;SDS011;6714;53.056;8.690;2023-04-03T14:01:48;1.67;;;1.20;;
13291;SDS011;6714;53.056;8.690;2023-04-03T14:04:32;2.10;;;1.10;;
13291;SDS011;6714;53.056;8.690;2023-04-03T14:07:15;0.97;;;0.97;;
13291;SDS011;6714;53.056;8.690;2023-04-03T14:10:00;0.77;;;0.77;;
13291;SDS011;6714;53.056;8.690;2023-04-03T14:12:43;1.10;;;0.80;;
13291;SDS011;6714;53.056;8.690;2023-04-03T14:15:26;0.93;;;0.80;;
13291;SDS011;6714;53.056;8.690;2023-04-03T14:18:10;1.80;;;1.20;;
13291;SDS011;6714;53.056;8.690;2023-04-03T14:20:53;0.77;;;0.77;;
13291;SDS011;6714;53.056;8.690;2023-04-03T14:23:35;1.37;;;0.93;;
13291;SDS011;6714;53.056;8.690;2023-04-03T14:26:18;0.80;;;0.80;;
13291;SDS011;6714;53.056;8.690;2023-04-03T14:29:02;1.83;;;0.97;;
13291;SDS011;6714;53.056;8.690;2023-04-03T14:31:45;1.00;;;0.90;;
13291;SDS011;6714;53.056;8.690;2023-04-03T14:34:28;1.20;;;1.10;;
13291;SDS011;6714;53.056;8.690;2023-04-03T14:37:11;1.23;;;1.13;;
13291;SDS011;6714;53.056;8.690;2023-04-03T14:39:54;0.80;;;0.77;;
13291;SDS011;6714;53.056;8.690;2023-04-03T14:42:36;0.90;;;0.90;;
13291;SDS011;6714;53.056;8.690;2023-04-03T14:45:21;0.90;;;0.90;;
13291;SDS011;6714;53.056;8.690;2023-04-03T14:48:04;0.97;;;0.97;;
13291;SDS011;6714;53.056;8.690;2023-04-03T14:50:48;0.83;;;0.83;;
13291;SDS011;6714;53.056;8.690;2023-04-03T14:53:30;2.33;;;1.20;;
13291;SDS011;6714;53.056;8.690;2023-04-03T14:56:13;1.20;;;1.10;;
13291;SDS011;6714;53.056;8.690;2023-04-03T14:58:57;2.10;;;1.20;;
13291;SDS011;6714;53.056;8.690;2023-04-03T15:01:41;0.83;;;0.80;;
13291;SDS011;6714;53.056;8.690;2023-04-03T15:04:23;2.10;;;1.10;;
13291;SDS011;6714;53.056;8.690;2023-04-03T15:07:07;1.80;;;1.23;;
13291;SDS011;6714;53.056;8.690;2023-04-03T15:09:50;1.07;;;0.90;;
13291;SDS011;6714;53.056;8.690;2023-04-03T15:12:33;0.87;;;0.83;;
13291;SDS011;6714;53.056;8.690;2023-04-03T15:15:15;1.03;;;0.93;;
13291;SDS011;6714;53.056;8.690;2023-04-03T15:17:59;1.20;;;1.00;;
13291;SDS011;6714;53.056;8.690;2023-04-03T15:20:42;0.70;;;0.70;;
13291;SDS011;6714;53.056;8.690;2023-04-03T15:23:24;1.37;;;1.00;;
13291;SDS011;6714;53.056;8.690;2023-04-03T15:26:08;1.20;;;1.10;;
13291;SDS011;6714;53.056;8.690;2023-04-03T15:28:50;2.23;;;1.20;;
13291;SDS011;6714;53.056;8.690;2023-04-03T15:31:33;1.33;;;0.80;;
13291;SDS011;6714;53.056;8.690;2023-04-03T15:34:16;0.90;;;0.90;;
13291;SDS011;6714;53.056;8.690;2023-04-03T15:36:59;1.53;;;0.90;;
13291;SDS011;6714;53.056;8.690;2023-04-03T15:39:41;1.53;;;1.00;;
13291;SDS011;6714;53.056;8.690;2023-04-03T15:42:23;0.90;;;0.90;;
13291;SDS011;6714;53.056;8.690;2023-04-03T15:45:06;1.30;;;1.20;;
13291;SDS011;6714;53.056;8.690;2023-04-03T15:47:48;1.10;;;0.70;;
13291;SDS011;6714;53.056;8.690;2023-04-03T15:50:33;1.00;;;1.00;;
13291;SDS011;6714;53.056;8.690;2023-04-03T15:53:15;1.20;;;1.10;;
13291;SDS011;6714;53.056;8.690;2023-04-03T15:55:57;1.40;;;1.10;;
13291;SDS011;6714;53.056;8.690;2023-04-03T15:58:40;1.47;;;1.00;;
13291;SDS011;6714;53.056;8.690;2023-04-03T16:01:22;2.60;;;1.20;;
13291;SDS011;6714;53.056;8.690;2023-04-03T16:04:05;2.70;;;1.30;;
13291;SDS011;6714;53.056;8.690;2023-04-03T16:06:48;1.47;;;1.17;;
13291;SDS011;6714;53.056;8.690;2023-04-03T16:09:31;0.80;;;0.80;;
13291;SDS011;6714;53.056;8.690;2023-04-03T16:12:13;1.50;;;1.00;;
13291;SDS011;6714;53.056;8.690;2023-04-03T16:14:56;1.63;;;0.70;;
13291;SDS011;6714;53.056;8.690;2023-04-03T16:17:38;1.60;;;1.10;;
13291;SDS011;6714;53.056;8.690;2023-04-03T16:20:21;1.57;;;1.00;;
13291;SDS011;6714;53.056;8.690;2023-04-03T16:23:05;2.00;;;1.00;;
13291;SDS011;6714;53.056;8.690;2023-04-03T16:25:48;2.23;;;1.43;;
13291;SDS011;6714;53.056;8.690;2023-04-03T16:28:30;0.80;;;0.80;;
13291;SDS011;6714;53.056;8.690;2023-04-03T16:31:13;1.50;;;1.10;;
13291;SDS011;6714;53.056;8.690;2023-04-03T16:33:55;1.07;;;1.00;;
13291;SDS011;6714;53.056;8.690;2023-04-03T16:36:37;1.23;;;1.00;;
13291;SDS011;6714;53.056;8.690;2023-04-03T16:39:21;0.93;;;0.87;;
13291;SDS011;6714;53.056;8.690;2023-04-03T16:42:03;1.30;;;1.20;;
13291;SDS011;6714;53.056;8.690;2023-04-03T16:44:46;1.70;;;1.10;;
13291;SDS011;6714;53.056;8.690;2023-04-03T16:47:28;1.37;;;1.13;;
13291;SDS011;6714;53.056;8.690;2023-04-03T16:50:10;1.53;;;1.10;;
13291;SDS011;6714;53.056;8.690;2023-04-03T16:52:52;1.50;;;0.90;;
13291;SDS011;6714;53.056;8.690;2023-04-03T16:55:36;1.83;;;1.37;;
13291;SDS011;6714;53.056;8.690;2023-04-03T16:58:19;2.03;;;1.23;;
13291;SDS011;6714;53.056;8.690;2023-04-03T17:01:08;1.60;;;1.50;;